Contact Us:
Email: info@sawbill.com
Phone: (218)663-7150
Fax: (218)663-7980
Mail: 4620 Sawbill Trail
Box 2129
Tofte, MN 55615


Powered by
Movable Type 3.15
 
Sawbill Weather History Archives: April 2006
Current Sawbill Weather History | « March 2006 | May 2006 »


Date

High
Temperature

Low
Temperature

Barometric
Pressure

Relative
Humidity 7AM

9 AM
Temperature

Moisture

Snow

4/30/06 50 44 29.99 87% 48 .75"
4/29/06 59 43 30.11 85% 43 .25"
4/28/06 66 33 30.26 73% 45 0
4/27/06 60 29 30.18 52% 33 0
4/26/06 71 29 30.07 52% 35 0
4/25/06 62 32 29.87 59% 42 0
4/24/06 47 28 30.18 68% 31 0
4/23/06 70 40 29.94 82% 47 0
4/22/06 65 43 29.95 32% 49 .08"
4/21/06 59 40 29.95 85% 43 0
4/20/06 62 38 29.83 87% 40 .22"
4/19/06 63 44 29.88 76% 47 Trace
4/18/06 74 32 29.92 60% 44 0
4/17/06 66 32 30.07 69% 35 0
4/16/06 66 33 30.07 59% 36 0
4/15/06 65 36 29.90 68% 43 0
4/14/06 63 32 29.79 77% 36 0
4/13/06 63 41 29.60 82% 41 0
4/12/06 67 43 30.02 82% 43 .15"
4/11/06 70 40 29.89 86% 42 .65"
4/10/06 62 38 29.73 65% 48 0
4/9/06 54 30 29.96 69% 38 0
4/8/06 51 27 30.10 67% 30 0
4/7/06 44 25 30.19 57% 27 0
4/6/06 59 25 29.95 56% 25 0
4/5/06 59 27 29.82 66% 36 0
4/4/06 49 24 30.02 66% 27 0
4/3/06 44 27 30.00 52% 27 0
4/2/06 38 27 29.95 66% 28 .47"
4/1/06 48 31 29.94 77% 34 0
 


Home I Trip Planning I Rentals and Outfitting I Reservations I Campgrounds I Sawbill Store I Sawbill News I Contact

© 1997 - 2017, Sawbill Canoe Outfitters, Inc. I Privacy Policy